createdAt,value
2023-03-06T00:01:23.870Z,99923.63
2023-03-06T00:04:32.445Z,99914.38
2023-03-06T00:07:47.898Z,99923.34
2023-03-06T00:11:04.872Z,99924.94
2023-03-06T00:14:13.498Z,99925.25
2023-03-06T00:17:21.961Z,99925.44
2023-03-06T00:20:39.801Z,99924.13
2023-03-06T00:23:47.873Z,99922.44
2023-03-06T00:27:02.977Z,99912.13
2023-03-06T00:30:05.550Z,99915.50
2023-03-06T00:33:19.930Z,99909.00
2023-03-06T00:36:34.945Z,99911.19
2023-03-06T00:39:37.145Z,99904.66
2023-03-06T00:42:52.906Z,99900.94
2023-03-06T00:45:54.844Z,99892.53
2023-03-06T00:49:10.927Z,99895.59
2023-03-06T00:52:19.863Z,99902.41
2023-03-06T00:55:28.941Z,99897.53
2023-03-06T00:58:37.503Z,99894.66
2023-03-06T01:01:51.961Z,99891.66
2023-03-06T01:04:53.896Z,99885.22
2023-03-06T01:08:09.944Z,99880.03
2023-03-06T01:11:17.940Z,99885.69
2023-03-06T01:14:33.897Z,99878.53
2023-03-06T01:17:41.955Z,99884.44
2023-03-06T01:20:57.233Z,99869.56
2023-03-06T01:24:05.985Z,99860.53
2023-03-06T01:27:20.929Z,99857.78
2023-03-06T01:30:29.498Z,99865.66
2023-03-06T01:33:38.005Z,99866.44
2023-03-06T01:36:53.121Z,99864.16
2023-03-06T01:40:07.968Z,99857.50
2023-03-06T01:43:39.918Z,99850.78
2023-03-06T01:46:43.646Z,99859.91
2023-03-06T01:50:00.008Z,99846.53
2023-03-06T01:53:01.956Z,99849.28
2023-03-06T01:56:20.003Z,99849.00
2023-03-06T01:59:23.681Z,99845.69
2023-03-06T02:02:39.060Z,99847.78
2023-03-06T02:05:42.608Z,99845.41
2023-03-06T02:08:59.049Z,99846.91
2023-03-06T02:12:09.940Z,99846.38
2023-03-06T02:15:28.954Z,99849.22
2023-03-06T02:18:52.946Z,99851.16
2023-03-06T02:22:09.955Z,99856.06
2023-03-06T02:25:38.569Z,99860.50
2023-03-06T02:28:46.961Z,99846.19
2023-03-06T02:31:56.138Z,99848.59
2023-03-06T02:35:11.946Z,99850.22
2023-03-06T02:38:17.642Z,99844.03
2023-03-06T02:41:33.015Z,99831.81
2023-03-06T02:44:47.933Z,99837.66
2023-03-06T02:47:49.831Z,99850.41
2023-03-06T02:51:04.976Z,99840.25
2023-03-06T02:54:13.593Z,99852.78
2023-03-06T02:57:21.956Z,99846.34
2023-03-06T03:00:39.023Z,99851.94
2023-03-06T03:03:41.865Z,99853.09
2023-03-06T03:06:57.064Z,99853.00
2023-03-06T03:09:58.907Z,99852.59
2023-03-06T03:13:14.003Z,99849.34
2023-03-06T03:16:23.063Z,99849.91
2023-03-06T03:19:37.950Z,99845.56
2023-03-06T03:22:57.967Z,99851.31
2023-03-06T03:26:14.939Z,99837.72
2023-03-06T03:29:17.589Z,99843.03
2023-03-06T03:32:33.077Z,99838.12
2023-03-06T03:35:42.112Z,99831.13
2023-03-06T03:38:50.602Z,99832.25
2023-03-06T03:41:58.961Z,99831.94
2023-03-06T03:45:14.957Z,99827.19
2023-03-06T03:48:16.722Z,99830.00
2023-03-06T03:51:31.028Z,99835.59
2023-03-06T03:54:33.648Z,99824.78
2023-03-06T03:57:47.998Z,99819.97
2023-03-06T04:00:50.023Z,99820.84
2023-03-06T04:04:05.017Z,99822.56
2023-03-06T04:07:06.854Z,99826.75
2023-03-06T04:10:21.978Z,99824.94
2023-03-06T04:13:24.590Z,99823.66
2023-03-06T04:16:39.005Z,99821.53
2023-03-06T04:19:53.994Z,99819.34
2023-03-06T04:23:09.010Z,99826.16
2023-03-06T04:26:10.820Z,99833.72
2023-03-06T04:29:25.985Z,99833.19
2023-03-06T04:32:34.635Z,99835.72
2023-03-06T04:35:49.061Z,99821.34
2023-03-06T04:38:50.992Z,99826.66
2023-03-06T04:42:07.001Z,99822.81
2023-03-06T04:45:23.098Z,99821.84
2023-03-06T04:48:25.151Z,99825.59
2023-03-06T04:51:40.035Z,99823.91
2023-03-06T04:54:48.617Z,99815.72
2023-03-06T04:58:05.011Z,99818.84
2023-03-06T05:01:07.061Z,99820.16
2023-03-06T05:04:22.029Z,99826.50
2023-03-06T05:07:30.138Z,99818.37
2023-03-06T05:10:45.058Z,99812.44
2023-03-06T05:13:53.696Z,99826.16
2023-03-06T05:17:02.007Z,99823.03
2023-03-06T05:20:26.172Z,99816.53
2023-03-06T05:23:29.184Z,99811.91
2023-03-06T05:26:44.083Z,99823.38
2023-03-06T05:29:53.026Z,99825.06
2023-03-06T05:33:08.069Z,99821.16
2023-03-06T05:36:17.066Z,99815.72
2023-03-06T05:39:25.793Z,99827.06
2023-03-06T05:42:40.042Z,99822.28
2023-03-06T05:45:55.042Z,99824.25
2023-03-06T05:49:10.150Z,99825.66
2023-03-06T05:52:13.235Z,99821.88
2023-03-06T05:55:28.014Z,99820.47
2023-03-06T05:58:44.073Z,99827.41
2023-03-06T06:01:46.516Z,99825.44
2023-03-06T06:05:01.057Z,99824.84
2023-03-06T06:08:02.958Z,99824.88
2023-03-06T06:11:19.049Z,99835.28
2023-03-06T06:14:28.077Z,99831.84
2023-03-06T06:17:50.098Z,99835.19
2023-03-06T06:21:05.142Z,99830.00
2023-03-06T06:24:22.085Z,99825.06
2023-03-06T06:27:30.634Z,99832.06
2023-03-06T06:30:45.174Z,99840.94
2023-03-06T06:33:53.721Z,99843.59
2023-03-06T06:37:02.087Z,99836.72
2023-03-06T06:40:18.037Z,99841.63
2023-03-06T06:43:26.074Z,99850.34
2023-03-06T06:50:11.091Z,99841.22
2023-03-06T06:53:19.670Z,99840.66
2023-03-06T06:56:34.103Z,99837.56
2023-03-06T06:59:43.130Z,99832.13
2023-03-06T07:02:52.081Z,99835.91
2023-03-06T07:06:00.955Z,99842.94
2023-03-06T07:09:17.094Z,99846.84
2023-03-06T07:12:32.808Z,99845.56
2023-03-06T07:15:41.167Z,99848.22
2023-03-06T07:18:50.393Z,99853.25
2023-03-06T07:22:05.180Z,99858.88
2023-03-06T07:25:14.086Z,99850.38
2023-03-06T07:28:22.999Z,99855.09
2023-03-06T07:31:34.147Z,99863.81
2023-03-06T07:34:50.425Z,99865.84
2023-03-06T07:41:22.480Z,99860.22
2023-03-06T07:44:30.901Z,99854.91
2023-03-06T07:47:47.107Z,99851.88
2023-03-06T07:51:07.187Z,99853.16
2023-03-06T07:54:23.306Z,99859.72
2023-03-06T07:57:32.127Z,99871.94
2023-03-06T08:00:47.114Z,99873.84
2023-03-06T08:03:55.959Z,99875.28
2023-03-06T08:07:12.097Z,99869.41
2023-03-06T08:10:27.667Z,99849.06
2023-03-06T08:13:36.640Z,99871.84
2023-03-06T08:16:51.114Z,99888.50
2023-03-06T08:20:05.378Z,99886.22
2023-03-06T08:23:14.062Z,99880.16
2023-03-06T08:26:33.178Z,99880.69
2023-03-06T08:29:35.146Z,99879.00
2023-03-06T08:32:53.105Z,99883.34
2023-03-06T08:36:08.138Z,99855.25
2023-03-06T08:39:17.097Z,99871.56
2023-03-06T08:42:32.121Z,99863.03
2023-03-06T08:45:33.895Z,99862.03
2023-03-06T08:48:49.134Z,99868.47
2023-03-06T08:51:57.934Z,99863.31
2023-03-06T08:55:07.246Z,99865.84
2023-03-06T08:58:22.198Z,99867.25
2023-03-06T09:01:33.433Z,99863.34
2023-03-06T09:04:48.163Z,99866.56
2023-03-06T09:08:03.171Z,99861.28
2023-03-06T09:11:21.115Z,99830.81
2023-03-06T09:14:31.209Z,99851.22
2023-03-06T09:17:40.145Z,99844.50
2023-03-06T09:20:55.120Z,99836.97
2023-03-06T09:23:57.419Z,99844.22
2023-03-06T09:27:44.159Z,99844.31
2023-03-06T09:31:00.260Z,99837.31
2023-03-06T09:34:08.949Z,99827.56
2023-03-06T09:37:17.437Z,99825.09
2023-03-06T09:40:39.134Z,99827.72
2023-03-06T09:43:58.180Z,99820.66
2023-03-06T09:47:21.826Z,99825.78
2023-03-06T09:50:51.092Z,99828.38
2023-03-06T09:54:11.151Z,99826.84
2023-03-06T09:57:26.030Z,99819.84
2023-03-06T10:00:45.191Z,99812.09
2023-03-06T10:04:18.217Z,99820.56
2023-03-06T10:07:23.708Z,99818.69
2023-03-06T10:10:51.175Z,99801.53
2023-03-06T10:14:07.507Z,99814.25
2023-03-06T10:17:25.142Z,99809.47
2023-03-06T10:20:39.352Z,99808.06
2023-03-06T10:24:01.168Z,99800.47
2023-03-06T10:27:22.223Z,99787.41
2023-03-06T10:30:50.653Z,99804.38
2023-03-06T10:34:08.166Z,99802.16
2023-03-06T10:37:27.257Z,99808.50
2023-03-06T10:40:50.214Z,99797.34
2023-03-06T10:44:19.846Z,99798.03
2023-03-06T10:47:36.161Z,99790.03
2023-03-06T10:50:44.908Z,99781.44
2023-03-06T10:54:01.214Z,99773.09
2023-03-06T10:57:32.217Z,99769.06
2023-03-06T11:01:07.440Z,99758.34
2023-03-06T11:04:44.317Z,99757.28
2023-03-06T11:07:56.472Z,99743.84
2023-03-06T11:11:11.133Z,99737.09
2023-03-06T11:14:33.251Z,99731.19
2023-03-06T11:17:38.087Z,99717.97
2023-03-06T11:20:57.225Z,99719.91
2023-03-06T11:24:25.228Z,99704.59
2023-03-06T11:27:38.222Z,99695.09
2023-03-06T11:30:54.850Z,99705.66
2023-03-06T11:34:15.203Z,99694.13
2023-03-06T11:37:50.179Z,99688.13
2023-03-06T11:41:05.299Z,99679.41
2023-03-06T11:44:28.166Z,99667.78
2023-03-06T11:47:47.242Z,99657.00
2023-03-06T11:51:06.535Z,99644.72
2023-03-06T11:54:19.215Z,99641.38
2023-03-06T11:57:45.240Z,99632.28
2023-03-06T12:01:07.241Z,99629.16
2023-03-06T12:04:35.757Z,99616.31
2023-03-06T12:08:04.204Z,99608.00
2023-03-06T12:11:33.161Z,99610.44
2023-03-06T12:15:18.183Z,99596.78
2023-03-06T12:18:56.231Z,99589.87
2023-03-06T12:22:23.356Z,99595.91
2023-03-06T12:25:43.164Z,99597.09
2023-03-06T12:29:28.283Z,99593.41
2023-03-06T12:32:59.263Z,99591.34
2023-03-06T12:36:28.469Z,99593.56
2023-03-06T12:40:10.261Z,99588.56
2023-03-06T12:43:51.409Z,99580.84
2023-03-06T12:47:14.209Z,99575.78
2023-03-06T12:50:32.561Z,99576.13
2023-03-06T12:53:48.233Z,99587.34
2023-03-06T12:56:52.004Z,99572.13
2023-03-06T13:00:07.383Z,99573.63
2023-03-06T13:03:48.257Z,99585.53
2023-03-06T13:10:50.250Z,99573.22
2023-03-06T13:13:58.720Z,99563.25
2023-03-06T13:17:41.341Z,99563.06
2023-03-06T13:20:44.783Z,99568.75
2023-03-06T13:24:11.286Z,99560.22
2023-03-06T13:27:49.816Z,99558.34
2023-03-06T13:30:58.265Z,99555.66
2023-03-06T13:34:33.653Z,99550.34
2023-03-06T13:37:44.509Z,99540.59
2023-03-06T13:41:31.240Z,99542.13
2023-03-06T13:44:40.993Z,99530.03
2023-03-06T13:51:32.443Z,99519.13
2023-03-06T13:54:58.312Z,99523.31
2023-03-06T13:58:40.302Z,99523.19
2023-03-06T14:02:24.348Z,99495.03
2023-03-06T14:05:43.938Z,99512.84
2023-03-06T14:08:53.283Z,99510.75
2023-03-06T14:12:31.333Z,99510.12
2023-03-06T14:15:49.407Z,99503.91
2023-03-06T14:19:00.725Z,99503.06
2023-03-06T14:22:10.226Z,99507.91
2023-03-06T14:25:38.266Z,99510.31
2023-03-06T14:28:46.325Z,99510.91
2023-03-06T14:32:04.318Z,99514.56
2023-03-06T14:35:25.125Z,99517.12
2023-03-06T14:38:37.406Z,99502.62
2023-03-06T14:41:45.885Z,99501.97
2023-03-06T14:44:56.344Z,99497.28
2023-03-06T14:48:13.389Z,99498.34
2023-03-06T14:54:42.252Z,99496.91
2023-03-06T14:58:04.284Z,99493.59
2023-03-06T15:01:14.846Z,99496.88
2023-03-06T15:04:38.325Z,99491.50
2023-03-06T15:07:41.913Z,99479.25
2023-03-06T15:11:07.296Z,99487.56
2023-03-06T15:14:26.416Z,99487.34
2023-03-06T15:17:40.530Z,99478.91
2023-03-06T15:20:54.379Z,99471.69
2023-03-06T15:24:32.706Z,99475.37
2023-03-06T15:27:47.286Z,99470.56
2023-03-06T15:31:01.383Z,99464.53
2023-03-06T15:34:25.287Z,99463.69
2023-03-06T15:37:34.316Z,99447.06
2023-03-06T15:40:42.265Z,99470.84
2023-03-06T15:43:50.988Z,99463.03
2023-03-06T15:47:07.816Z,99467.16
2023-03-06T15:50:22.027Z,99468.19
2023-03-06T15:53:33.797Z,99476.88
2023-03-06T15:56:51.313Z,99476.34
2023-03-06T15:59:54.061Z,99476.25
2023-03-06T16:03:11.347Z,99479.44
2023-03-06T16:06:16.866Z,99471.03
2023-03-06T16:09:31.371Z,99450.81
2023-03-06T16:12:57.307Z,99481.09
2023-03-06T16:16:13.370Z,99484.88
2023-03-06T16:19:27.307Z,99486.53
2023-03-06T16:23:07.403Z,99478.78
2023-03-06T16:26:23.107Z,99488.22
2023-03-06T16:29:33.459Z,99480.56
2023-03-06T16:32:42.054Z,99486.22
2023-03-06T16:35:50.388Z,99487.00
2023-03-06T16:38:58.978Z,99483.97
2023-03-06T16:42:07.390Z,99489.00
2023-03-06T16:45:24.289Z,99499.59
2023-03-06T16:48:33.377Z,99501.19
2023-03-06T16:51:48.340Z,99504.13
2023-03-06T16:54:57.371Z,99502.00
2023-03-06T16:58:06.223Z,99507.06
2023-03-06T17:01:16.343Z,99500.25
2023-03-06T17:04:32.365Z,99494.16
2023-03-06T17:07:35.328Z,99506.88
2023-03-06T17:10:50.347Z,99497.72
2023-03-06T17:13:52.583Z,99491.09
2023-03-06T17:17:07.404Z,99499.22
2023-03-06T17:20:11.005Z,99509.06
2023-03-06T17:23:28.415Z,99510.12
2023-03-06T17:26:43.465Z,99507.22
2023-03-06T17:29:52.365Z,99499.81
2023-03-06T17:33:01.374Z,99507.44
2023-03-06T17:36:10.426Z,99490.25
2023-03-06T17:39:25.716Z,99495.16
2023-03-06T17:42:28.232Z,99497.50
2023-03-06T17:45:43.318Z,99495.38
2023-03-06T17:48:51.173Z,99490.09
2023-03-06T17:52:09.371Z,99481.47
2023-03-06T17:55:24.329Z,99488.22
2023-03-06T17:58:27.088Z,99489.19
2023-03-06T18:01:41.506Z,99496.28
2023-03-06T18:04:50.374Z,99494.72
2023-03-06T18:08:05.360Z,99493.44
2023-03-06T18:11:21.388Z,99501.25
2023-03-06T18:14:32.795Z,99498.56
2023-03-06T18:17:47.347Z,99510.09
2023-03-06T18:21:03.433Z,99502.75
2023-03-06T18:24:05.615Z,99496.50
2023-03-06T18:27:20.376Z,99495.66
2023-03-06T18:30:22.436Z,99501.56
2023-03-06T18:33:38.498Z,99495.22
2023-03-06T18:36:48.367Z,99491.78
2023-03-06T18:39:57.166Z,99489.19
2023-03-06T18:43:06.418Z,99495.06
2023-03-06T18:46:14.970Z,99492.16
2023-03-06T18:49:23.526Z,99498.09
2023-03-06T18:52:40.365Z,99502.88
2023-03-06T18:55:51.307Z,99493.44
2023-03-06T18:59:10.513Z,99497.28
2023-03-06T19:02:13.088Z,99505.50
2023-03-06T19:05:27.528Z,99498.87
2023-03-06T19:08:45.379Z,99493.00
2023-03-06T19:11:54.995Z,99478.72
2023-03-06T19:15:10.513Z,99494.50
2023-03-06T19:18:16.470Z,99507.53
2023-03-06T19:21:34.562Z,99497.44
2023-03-06T19:24:36.676Z,99477.56
2023-03-06T19:27:51.379Z,99489.09
2023-03-06T19:31:00.599Z,99493.97
2023-03-06T19:34:09.410Z,99499.72
2023-03-06T19:37:18.029Z,99485.09
2023-03-06T19:40:26.501Z,99487.09
2023-03-06T19:43:35.410Z,99483.16
2023-03-06T19:46:43.671Z,99489.06
2023-03-06T19:49:52.101Z,99481.31
2023-03-06T19:53:00.380Z,99482.31
2023-03-06T19:56:20.372Z,99490.75
2023-03-06T19:59:22.417Z,99501.72
2023-03-06T20:02:37.455Z,99477.25
2023-03-06T20:05:46.302Z,99473.38
2023-03-06T20:09:01.637Z,99466.50
2023-03-06T20:12:23.466Z,99474.81
2023-03-06T20:15:25.369Z,99481.59
2023-03-06T20:18:40.381Z,99480.88
2023-03-06T20:21:42.514Z,99482.53
2023-03-06T20:24:57.434Z,99477.63
2023-03-06T20:27:59.258Z,99471.00
2023-03-06T20:31:20.516Z,99467.94
2023-03-06T20:34:29.425Z,99479.16
2023-03-06T20:37:38.266Z,99469.22
2023-03-06T20:40:48.522Z,99488.63
2023-03-06T20:44:06.422Z,99480.91
2023-03-06T20:47:18.052Z,99485.94
2023-03-06T20:50:27.417Z,99477.50
2023-03-06T20:53:35.986Z,99487.16
2023-03-06T20:56:44.388Z,99496.09
2023-03-06T20:59:53.094Z,99496.63
2023-03-06T21:03:01.499Z,99492.13
2023-03-06T21:06:16.445Z,99491.19
2023-03-06T21:09:18.475Z,99494.09
2023-03-06T21:12:40.412Z,99485.94
2023-03-06T21:15:43.303Z,99479.31
2023-03-06T21:19:00.596Z,99491.59
2023-03-06T21:22:09.441Z,99487.41
2023-03-06T21:25:24.439Z,99501.16
2023-03-06T21:28:26.306Z,99499.50
2023-03-06T21:31:42.586Z,99485.56
2023-03-06T21:34:51.227Z,99493.56
2023-03-06T21:37:59.432Z,99461.13
2023-03-06T21:41:12.607Z,99492.47
2023-03-06T21:44:20.514Z,99489.44
2023-03-06T21:47:29.033Z,99484.63
2023-03-06T21:50:37.457Z,99490.81
2023-03-06T21:53:47.912Z,99493.62
2023-03-06T21:56:56.538Z,99457.22
2023-03-06T22:00:05.937Z,99483.94
2023-03-06T22:03:20.426Z,99482.66
2023-03-06T22:06:31.459Z,99486.16
2023-03-06T22:09:46.475Z,99460.13
2023-03-06T22:12:55.773Z,99486.31
2023-03-06T22:16:11.581Z,99493.03
2023-03-06T22:19:13.645Z,99482.75
2023-03-06T22:22:29.468Z,99476.47
2023-03-06T22:25:37.478Z,99476.19
2023-03-06T22:28:52.504Z,99477.31
2023-03-06T22:31:54.396Z,99485.31
2023-03-06T22:35:09.442Z,99478.75
2023-03-06T22:38:17.499Z,99487.44
2023-03-06T22:41:33.485Z,99473.66
2023-03-06T22:44:48.446Z,99472.72
2023-03-06T22:48:10.898Z,99478.00
2023-03-06T22:51:17.756Z,99479.72
2023-03-06T22:54:32.446Z,99479.25
2023-03-06T22:57:34.252Z,99486.56
2023-03-06T23:00:49.450Z,99483.44
2023-03-06T23:03:53.887Z,99478.31
2023-03-06T23:07:08.486Z,99497.13
2023-03-06T23:10:17.494Z,99479.41
2023-03-06T23:13:32.829Z,99493.72
2023-03-06T23:16:42.492Z,99494.16
2023-03-06T23:19:51.122Z,99491.53
2023-03-06T23:22:59.493Z,99485.13
2023-03-06T23:26:08.788Z,99485.22
2023-03-06T23:29:17.516Z,99457.56
2023-03-06T23:32:32.588Z,99484.56
2023-03-06T23:35:35.913Z,99476.34
2023-03-06T23:38:51.522Z,99482.50
2023-03-06T23:41:53.462Z,99481.38
2023-03-06T23:45:08.538Z,99482.59
2023-03-06T23:48:10.654Z,99484.69
2023-03-06T23:51:28.614Z,99490.16
2023-03-06T23:54:37.463Z,99483.16
2023-03-06T23:57:52.512Z,99488.50
